sensor_id;sensor_type;location;lat;lon;timestamp;pressure;altitude;pressure_sealevel;temperature;humidity
57668;BME280;43499;52.366;12.912;2024-01-11T00:00:21;102919.91;;;-5.77;71.42
57668;BME280;43499;52.366;12.912;2024-01-11T00:01:23;102916.84;;;-5.70;71.34
57668;BME280;43499;52.366;12.912;2024-01-11T00:02:24;102907.56;;;-5.70;71.17
57668;BME280;43499;52.366;12.912;2024-01-11T00:03:25;102904.69;;;-5.71;70.93
57668;BME280;43499;52.366;12.912;2024-01-11T00:04:26;102893.22;;;-5.74;70.90
57668;BME280;43499;52.366;12.912;2024-01-11T00:05:27;102897.56;;;-5.68;71.01
57668;BME280;43499;52.366;12.912;2024-01-11T00:06:28;102903.25;;;-5.65;70.80
57668;BME280;43499;52.366;12.912;2024-01-11T00:07:29;102889.88;;;-5.68;70.69
57668;BME280;43499;52.366;12.912;2024-01-11T00:08:30;102903.09;;;-5.61;70.52
57668;BME280;43499;52.366;12.912;2024-01-11T00:09:31;102901.88;;;-5.63;70.58
57668;BME280;43499;52.366;12.912;2024-01-11T00:10:32;102904.84;;;-5.66;70.61
57668;BME280;43499;52.366;12.912;2024-01-11T00:11:33;102887.97;;;-5.69;70.93
57668;BME280;43499;52.366;12.912;2024-01-11T00:12:34;102898.91;;;-5.70;70.90
57668;BME280;43499;52.366;12.912;2024-01-11T00:13:35;102894.75;;;-5.70;70.81
57668;BME280;43499;52.366;12.912;2024-01-11T00:14:36;102880.25;;;-5.79;70.89
57668;BME280;43499;52.366;12.912;2024-01-11T00:15:37;102874.19;;;-5.80;70.83
57668;BME280;43499;52.366;12.912;2024-01-11T00:16:39;102889.47;;;-5.76;70.59
57668;BME280;43499;52.366;12.912;2024-01-11T00:17:40;102878.66;;;-5.79;71.08
57668;BME280;43499;52.366;12.912;2024-01-11T00:18:41;102880.16;;;-5.75;71.08
57668;BME280;43499;52.366;12.912;2024-01-11T00:19:42;102874.03;;;-5.85;71.18
57668;BME280;43499;52.366;12.912;2024-01-11T00:20:43;102884.69;;;-5.78;71.24
57668;BME280;43499;52.366;12.912;2024-01-11T00:21:44;102882.31;;;-5.73;71.47
57668;BME280;43499;52.366;12.912;2024-01-11T00:22:45;102880.31;;;-5.69;71.17
57668;BME280;43499;52.366;12.912;2024-01-11T00:23:46;102873.69;;;-5.63;71.17
57668;BME280;43499;52.366;12.912;2024-01-11T00:24:47;102853.75;;;-5.70;71.17
57668;BME280;43499;52.366;12.912;2024-01-11T00:25:48;102878.44;;;-5.61;70.27
57668;BME280;43499;52.366;12.912;2024-01-11T00:26:50;102877.22;;;-5.63;70.53
57668;BME280;43499;52.366;12.912;2024-01-11T00:27:51;102876.25;;;-5.63;70.75
57668;BME280;43499;52.366;12.912;2024-01-11T00:28:52;102885.53;;;-5.74;70.79
57668;BME280;43499;52.366;12.912;2024-01-11T00:29:53;102886.59;;;-5.77;70.97
57668;BME280;43499;52.366;12.912;2024-01-11T00:30:55;102886.44;;;-5.83;70.91
57668;BME280;43499;52.366;12.912;2024-01-11T00:31:56;102891.31;;;-5.84;71.04
57668;BME280;43499;52.366;12.912;2024-01-11T00:32:57;102880.38;;;-5.83;71.55
57668;BME280;43499;52.366;12.912;2024-01-11T00:33:58;102870.66;;;-5.90;71.50
57668;BME280;43499;52.366;12.912;2024-01-11T00:34:59;102872.81;;;-5.88;71.60
57668;BME280;43499;52.366;12.912;2024-01-11T00:36:00;102881.63;;;-5.81;71.91
57668;BME280;43499;52.366;12.912;2024-01-11T00:37:02;102869.06;;;-5.80;71.80
57668;BME280;43499;52.366;12.912;2024-01-11T00:38:03;102868.41;;;-5.79;71.67
57668;BME280;43499;52.366;12.912;2024-01-11T00:39:04;102871.63;;;-5.80;71.67
57668;BME280;43499;52.366;12.912;2024-01-11T00:40:05;102865.53;;;-5.80;71.62
57668;BME280;43499;52.366;12.912;2024-01-11T00:41:06;102875.28;;;-5.74;71.79
57668;BME280;43499;52.366;12.912;2024-01-11T00:42:07;102878.34;;;-5.80;71.65
57668;BME280;43499;52.366;12.912;2024-01-11T00:43:08;102884.19;;;-5.81;71.81
57668;BME280;43499;52.366;12.912;2024-01-11T00:44:09;102876.16;;;-5.93;71.74
57668;BME280;43499;52.366;12.912;2024-01-11T00:45:10;102889.41;;;-5.85;72.25
57668;BME280;43499;52.366;12.912;2024-01-11T00:46:12;102900.75;;;-5.79;72.04
57668;BME280;43499;52.366;12.912;2024-01-11T00:47:13;102895.50;;;-5.75;72.19
57668;BME280;43499;52.366;12.912;2024-01-11T00:48:14;102872.25;;;-5.91;72.46
57668;BME280;43499;52.366;12.912;2024-01-11T00:49:15;102865.94;;;-5.93;72.64
57668;BME280;43499;52.366;12.912;2024-01-11T00:50:16;102868.06;;;-6.00;72.88
57668;BME280;43499;52.366;12.912;2024-01-11T00:51:17;102858.63;;;-6.05;73.46
57668;BME280;43499;52.366;12.912;2024-01-11T00:52:18;102860.78;;;-6.02;73.49
57668;BME280;43499;52.366;12.912;2024-01-11T00:53:19;102862.81;;;-5.86;73.15
57668;BME280;43499;52.366;12.912;2024-01-11T00:54:20;102849.25;;;-5.81;72.59
57668;BME280;43499;52.366;12.912;2024-01-11T00:55:21;102861.53;;;-5.74;72.64
57668;BME280;43499;52.366;12.912;2024-01-11T00:56:22;102862.63;;;-5.68;72.60
57668;BME280;43499;52.366;12.912;2024-01-11T00:57:23;102850.22;;;-5.70;72.55
57668;BME280;43499;52.366;12.912;2024-01-11T00:58:24;102859.41;;;-5.67;72.54
57668;BME280;43499;52.366;12.912;2024-01-11T00:59:25;102855.09;;;-5.62;72.06
57668;BME280;43499;52.366;12.912;2024-01-11T01:00:26;102850.63;;;-5.63;71.82
57668;BME280;43499;52.366;12.912;2024-01-11T01:01:28;102858.47;;;-5.67;71.43
57668;BME280;43499;52.366;12.912;2024-01-11T01:02:29;102859.13;;;-5.68;71.25
57668;BME280;43499;52.366;12.912;2024-01-11T01:03:30;102854.13;;;-5.73;71.74
57668;BME280;43499;52.366;12.912;2024-01-11T01:04:31;102831.84;;;-5.88;71.42
57668;BME280;43499;52.366;12.912;2024-01-11T01:05:32;102861.13;;;-5.71;71.89
57668;BME280;43499;52.366;12.912;2024-01-11T01:06:33;102858.72;;;-5.76;71.91
57668;BME280;43499;52.366;12.912;2024-01-11T01:07:34;102858.56;;;-5.71;71.99
57668;BME280;43499;52.366;12.912;2024-01-11T01:08:35;102853.72;;;-5.80;71.86
57668;BME280;43499;52.366;12.912;2024-01-11T01:09:36;102859.56;;;-5.95;72.30
57668;BME280;43499;52.366;12.912;2024-01-11T01:10:37;102838.84;;;-6.20;72.65
57668;BME280;43499;52.366;12.912;2024-01-11T01:11:38;102851.81;;;-6.14;73.62
57668;BME280;43499;52.366;12.912;2024-01-11T01:12:39;102852.94;;;-6.08;73.68
57668;BME280;43499;52.366;12.912;2024-01-11T01:13:40;102846.09;;;-6.03;73.74
57668;BME280;43499;52.366;12.912;2024-01-11T01:14:41;102833.00;;;-5.95;73.65
57668;BME280;43499;52.366;12.912;2024-01-11T01:15:42;102841.34;;;-5.96;73.41
57668;BME280;43499;52.366;12.912;2024-01-11T01:16:44;102832.34;;;-6.04;73.43
57668;BME280;43499;52.366;12.912;2024-01-11T01:17:45;102820.72;;;-6.12;73.42
57668;BME280;43499;52.366;12.912;2024-01-11T01:18:46;102838.81;;;-6.06;73.38
57668;BME280;43499;52.366;12.912;2024-01-11T01:19:47;102830.00;;;-6.12;73.49
57668;BME280;43499;52.366;12.912;2024-01-11T01:20:48;102841.22;;;-6.12;73.51
57668;BME280;43499;52.366;12.912;2024-01-11T01:21:49;102855.50;;;-6.08;73.16
57668;BME280;43499;52.366;12.912;2024-01-11T01:22:50;102854.81;;;-5.97;73.28
57668;BME280;43499;52.366;12.912;2024-01-11T01:23:51;102847.31;;;-5.92;73.17
57668;BME280;43499;52.366;12.912;2024-01-11T01:24:52;102837.09;;;-5.82;72.97
57668;BME280;43499;52.366;12.912;2024-01-11T01:25:53;102832.53;;;-5.79;72.82
57668;BME280;43499;52.366;12.912;2024-01-11T01:26:54;102839.25;;;-5.79;72.08
57668;BME280;43499;52.366;12.912;2024-01-11T01:27:55;102825.13;;;-5.87;72.34
57668;BME280;43499;52.366;12.912;2024-01-11T01:28:56;102822.09;;;-5.94;72.53
57668;BME280;43499;52.366;12.912;2024-01-11T01:29:57;102823.44;;;-5.96;72.28
57668;BME280;43499;52.366;12.912;2024-01-11T01:30:58;102824.94;;;-6.02;72.62
57668;BME280;43499;52.366;12.912;2024-01-11T01:31:59;102827.78;;;-5.91;72.70
57668;BME280;43499;52.366;12.912;2024-01-11T01:33:00;102829.53;;;-5.86;71.97
57668;BME280;43499;52.366;12.912;2024-01-11T01:34:01;102827.28;;;-5.84;72.30
57668;BME280;43499;52.366;12.912;2024-01-11T01:35:03;102825.53;;;-5.80;72.07
57668;BME280;43499;52.366;12.912;2024-01-11T01:36:08;102819.94;;;-5.97;71.85
57668;BME280;43499;52.366;12.912;2024-01-11T01:37:09;102827.06;;;-6.10;71.98
57668;BME280;43499;52.366;12.912;2024-01-11T01:38:10;102796.47;;;-6.38;72.69
57668;BME280;43499;52.366;12.912;2024-01-11T01:39:11;102802.75;;;-6.45;72.48
57668;BME280;43499;52.366;12.912;2024-01-11T01:40:12;102803.66;;;-6.55;73.38
57668;BME280;43499;52.366;12.912;2024-01-11T01:41:13;102802.59;;;-6.51;73.13
57668;BME280;43499;52.366;12.912;2024-01-11T01:42:14;102796.16;;;-6.49;73.17
57668;BME280;43499;52.366;12.912;2024-01-11T01:43:15;102791.09;;;-6.39;73.21
57668;BME280;43499;52.366;12.912;2024-01-11T01:44:17;102807.16;;;-6.30;72.94
57668;BME280;43499;52.366;12.912;2024-01-11T01:45:18;102791.19;;;-6.20;72.49
57668;BME280;43499;52.366;12.912;2024-01-11T01:46:23;102805.38;;;-6.02;71.79
57668;BME280;43499;52.366;12.912;2024-01-11T01:47:24;102804.88;;;-6.05;71.59
57668;BME280;43499;52.366;12.912;2024-01-11T01:48:26;102812.00;;;-5.98;71.07
57668;BME280;43499;52.366;12.912;2024-01-11T01:49:27;102802.81;;;-6.02;71.10
57668;BME280;43499;52.366;12.912;2024-01-11T01:50:28;102795.97;;;-6.07;70.89
57668;BME280;43499;52.366;12.912;2024-01-11T01:51:31;102807.53;;;-6.09;70.94
57668;BME280;43499;52.366;12.912;2024-01-11T01:52:33;102815.47;;;-6.08;71.06
57668;BME280;43499;52.366;12.912;2024-01-11T01:53:36;102819.41;;;-6.10;71.18
57668;BME280;43499;52.366;12.912;2024-01-11T01:54:37;102800.09;;;-6.17;71.38
57668;BME280;43499;52.366;12.912;2024-01-11T01:55:38;102797.63;;;-6.22;71.33
57668;BME280;43499;52.366;12.912;2024-01-11T01:56:39;102797.91;;;-6.20;71.71
57668;BME280;43499;52.366;12.912;2024-01-11T01:57:42;102802.66;;;-6.17;71.52
57668;BME280;43499;52.366;12.912;2024-01-11T01:58:45;102812.09;;;-6.12;71.58
57668;BME280;43499;52.366;12.912;2024-01-11T01:59:48;102810.75;;;-6.10;71.34
57668;BME280;43499;52.366;12.912;2024-01-11T02:00:51;102809.97;;;-6.05;71.31
57668;BME280;43499;52.366;12.912;2024-01-11T02:01:53;102799.75;;;-6.05;71.43
57668;BME280;43499;52.366;12.912;2024-01-11T02:02:55;102802.97;;;-6.06;71.29
57668;BME280;43499;52.366;12.912;2024-01-11T02:03:56;102802.81;;;-6.12;71.09
57668;BME280;43499;52.366;12.912;2024-01-11T02:04:58;102807.78;;;-6.17;71.44
57668;BME280;43499;52.366;12.912;2024-01-11T02:05:59;102795.41;;;-6.34;71.45
57668;BME280;43499;52.366;12.912;2024-01-11T02:07:01;102817.94;;;-6.27;71.81
57668;BME280;43499;52.366;12.912;2024-01-11T02:08:06;102818.50;;;-6.24;71.79
57668;BME280;43499;52.366;12.912;2024-01-11T02:09:10;102818.22;;;-6.26;71.95
57668;BME280;43499;52.366;12.912;2024-01-11T02:10:12;102821.75;;;-6.25;71.76
57668;BME280;43499;52.366;12.912;2024-01-11T02:11:13;102807.16;;;-6.30;71.93
57668;BME280;43499;52.366;12.912;2024-01-11T02:12:14;102793.41;;;-6.31;71.53
57668;BME280;43499;52.366;12.912;2024-01-11T02:13:16;102808.63;;;-6.27;71.43
57668;BME280;43499;52.366;12.912;2024-01-11T02:14:17;102813.75;;;-6.27;71.55
57668;BME280;43499;52.366;12.912;2024-01-11T02:15:18;102815.97;;;-6.24;71.65
57668;BME280;43499;52.366;12.912;2024-01-11T02:16:19;102807.44;;;-6.29;71.64
57668;BME280;43499;52.366;12.912;2024-01-11T02:17:20;102816.53;;;-6.45;71.45
57668;BME280;43499;52.366;12.912;2024-01-11T02:18:22;102815.16;;;-6.43;71.65
57668;BME280;43499;52.366;12.912;2024-01-11T02:19:23;102819.63;;;-6.42;71.71
57668;BME280;43499;52.366;12.912;2024-01-11T02:20:24;102815.97;;;-6.48;71.85
57668;BME280;43499;52.366;12.912;2024-01-11T02:21:27;102825.69;;;-6.41;71.87
57668;BME280;43499;52.366;12.912;2024-01-11T02:22:34;102800.88;;;-6.46;72.14
57668;BME280;43499;52.366;12.912;2024-01-11T02:23:42;102809.19;;;-6.33;72.30
57668;BME280;43499;52.366;12.912;2024-01-11T02:24:46;102803.25;;;-6.52;72.09
57668;BME280;43499;52.366;12.912;2024-01-11T02:25:47;102804.66;;;-6.44;71.83
57668;BME280;43499;52.366;12.912;2024-01-11T02:26:58;102817.13;;;-6.32;72.04
57668;BME280;43499;52.366;12.912;2024-01-11T02:28:03;102824.38;;;-6.39;71.75
57668;BME280;43499;52.366;12.912;2024-01-11T02:29:04;102828.09;;;-6.47;71.66
57668;BME280;43499;52.366;12.912;2024-01-11T02:30:05;102847.22;;;-6.45;71.69
57668;BME280;43499;52.366;12.912;2024-01-11T02:31:07;102845.47;;;-6.64;71.92
57668;BME280;43499;52.366;12.912;2024-01-11T02:32:08;102832.88;;;-6.72;72.71
57668;BME280;43499;52.366;12.912;2024-01-11T02:33:09;102824.63;;;-6.61;72.63
57668;BME280;43499;52.366;12.912;2024-01-11T02:34:10;102837.19;;;-6.53;72.25
57668;BME280;43499;52.366;12.912;2024-01-11T02:35:12;102848.25;;;-6.48;72.19
57668;BME280;43499;52.366;12.912;2024-01-11T02:36:14;102840.31;;;-6.50;71.76
57668;BME280;43499;52.366;12.912;2024-01-11T02:37:15;102839.38;;;-6.51;72.14
57668;BME280;43499;52.366;12.912;2024-01-11T02:38:16;102830.84;;;-6.55;72.01
57668;BME280;43499;52.366;12.912;2024-01-11T02:39:19;102844.09;;;-6.48;71.99
57668;BME280;43499;52.366;12.912;2024-01-11T02:40:21;102855.44;;;-6.42;71.95
57668;BME280;43499;52.366;12.912;2024-01-11T02:41:23;102847.81;;;-6.56;71.89
57668;BME280;43499;52.366;12.912;2024-01-11T02:42:24;102851.31;;;-6.55;71.75
57668;BME280;43499;52.366;12.912;2024-01-11T02:43:25;102857.28;;;-6.51;72.23
57668;BME280;43499;52.366;12.912;2024-01-11T02:44:26;102845.91;;;-6.57;72.08
57668;BME280;43499;52.366;12.912;2024-01-11T02:45:27;102839.47;;;-6.55;72.47
57668;BME280;43499;52.366;12.912;2024-01-11T02:46:30;102848.16;;;-6.44;72.47
57668;BME280;43499;52.366;12.912;2024-01-11T02:47:31;102837.75;;;-6.50;72.13
57668;BME280;43499;52.366;12.912;2024-01-11T02:48:32;102855.84;;;-6.44;72.39
57668;BME280;43499;52.366;12.912;2024-01-11T02:49:33;102853.66;;;-6.47;72.47
57668;BME280;43499;52.366;12.912;2024-01-11T02:50:34;102846.19;;;-6.55;72.54
57668;BME280;43499;52.366;12.912;2024-01-11T02:51:35;102847.56;;;-6.71;72.86
57668;BME280;43499;52.366;12.912;2024-01-11T02:52:37;102868.19;;;-6.66;73.74
57668;BME280;43499;52.366;12.912;2024-01-11T02:53:38;102868.69;;;-6.58;74.33
57668;BME280;43499;52.366;12.912;2024-01-11T02:54:39;102863.16;;;-6.56;74.74
57668;BME280;43499;52.366;12.912;2024-01-11T02:55:40;102873.66;;;-6.40;74.75
57668;BME280;43499;52.366;12.912;2024-01-11T02:56:41;102870.28;;;-6.35;74.95
57668;BME280;43499;52.366;12.912;2024-01-11T02:57:43;102861.22;;;-6.43;75.04
57668;BME280;43499;52.366;12.912;2024-01-11T02:58:44;102866.56;;;-6.27;74.72
57668;BME280;43499;52.366;12.912;2024-01-11T02:59:45;102876.97;;;-6.22;74.71
57668;BME280;43499;52.366;12.912;2024-01-11T03:00:46;102857.84;;;-6.24;74.35
57668;BME280;43499;52.366;12.912;2024-01-11T03:01:47;102872.59;;;-6.13;74.72
57668;BME280;43499;52.366;12.912;2024-01-11T03:02:48;102864.50;;;-6.10;74.76
57668;BME280;43499;52.366;12.912;2024-01-11T03:03:49;102870.31;;;-6.11;74.48
57668;BME280;43499;52.366;12.912;2024-01-11T03:04:50;102854.69;;;-6.13;75.11
57668;BME280;43499;52.366;12.912;2024-01-11T03:05:51;102864.97;;;-5.93;75.10
57668;BME280;43499;52.366;12.912;2024-01-11T03:06:52;102855.28;;;-5.90;74.96
57668;BME280;43499;52.366;12.912;2024-01-11T03:07:53;102849.66;;;-5.83;74.96
57668;BME280;43499;52.366;12.912;2024-01-11T03:08:55;102848.31;;;-5.81;74.78
57668;BME280;43499;52.366;12.912;2024-01-11T03:09:56;102836.19;;;-5.82;74.73
57668;BME280;43499;52.366;12.912;2024-01-11T03:10:57;102848.16;;;-5.87;75.25
57668;BME280;43499;52.366;12.912;2024-01-11T03:11:58;102842.88;;;-5.93;75.99
57668;BME280;43499;52.366;12.912;2024-01-11T03:12:59;102849.91;;;-5.82;76.06
57668;BME280;43499;52.366;12.912;2024-01-11T03:14:00;102853.56;;;-5.85;76.73
57668;BME280;43499;52.366;12.912;2024-01-11T03:15:02;102844.63;;;-5.88;77.18
57668;BME280;43499;52.366;12.912;2024-01-11T03:16:04;102847.66;;;-5.70;76.92
57668;BME280;43499;52.366;12.912;2024-01-11T03:17:06;102839.88;;;-5.66;76.63
57668;BME280;43499;52.366;12.912;2024-01-11T03:18:07;102835.81;;;-5.70;76.53
57668;BME280;43499;52.366;12.912;2024-01-11T03:19:08;102815.19;;;-5.76;77.03
57668;BME280;43499;52.366;12.912;2024-01-11T03:20:09;102823.69;;;-5.71;76.89
57668;BME280;43499;52.366;12.912;2024-01-11T03:21:10;102820.66;;;-5.78;77.42
57668;BME280;43499;52.366;12.912;2024-01-11T03:22:12;102817.34;;;-5.73;77.41
57668;BME280;43499;52.366;12.912;2024-01-11T03:23:13;102831.38;;;-5.61;77.49
57668;BME280;43499;52.366;12.912;2024-01-11T03:24:14;102827.22;;;-5.61;77.17
57668;BME280;43499;52.366;12.912;2024-01-11T03:25:15;102805.34;;;-5.68;77.21
57668;BME280;43499;52.366;12.912;2024-01-11T03:26:17;102830.84;;;-5.54;77.18
57668;BME280;43499;52.366;12.912;2024-01-11T03:27:18;102831.25;;;-5.57;76.98
57668;BME280;43499;52.366;12.912;2024-01-11T03:28:19;102827.63;;;-5.53;76.68
57668;BME280;43499;52.366;12.912;2024-01-11T03:29:20;102831.66;;;-5.50;76.88
57668;BME280;43499;52.366;12.912;2024-01-11T03:30:21;102839.75;;;-5.52;76.77
57668;BME280;43499;52.366;12.912;2024-01-11T03:31:22;102849.88;;;-5.58;76.65
57668;BME280;43499;52.366;12.912;2024-01-11T03:32:23;102844.47;;;-5.93;77.61
57668;BME280;43499;52.366;12.912;2024-01-11T03:33:24;102843.47;;;-5.80;78.11
57668;BME280;43499;52.366;12.912;2024-01-11T03:34:25;102854.56;;;-5.99;78.42
57668;BME280;43499;52.366;12.912;2024-01-11T03:35:26;102844.06;;;-5.91;78.71
57668;BME280;43499;52.366;12.912;2024-01-11T03:36:27;102838.44;;;-5.94;78.88
57668;BME280;43499;52.366;12.912;2024-01-11T03:37:28;102836.59;;;-5.75;78.83
57668;BME280;43499;52.366;12.912;2024-01-11T03:38:29;102854.44;;;-5.61;78.26
57668;BME280;43499;52.366;12.912;2024-01-11T03:39:30;102856.72;;;-5.63;78.17
57668;BME280;43499;52.366;12.912;2024-01-11T03:40:31;102850.53;;;-5.59;77.97
57668;BME280;43499;52.366;12.912;2024-01-11T03:41:32;102842.59;;;-5.61;77.89
57668;BME280;43499;52.366;12.912;2024-01-11T03:42:33;102844.69;;;-5.68;77.80
57668;BME280;43499;52.366;12.912;2024-01-11T03:43:35;102826.97;;;-5.96;78.35
57668;BME280;43499;52.366;12.912;2024-01-11T03:44:36;102846.94;;;-5.89;78.88
57668;BME280;43499;52.366;12.912;2024-01-11T03:45:37;102835.34;;;-5.87;78.76
57668;BME280;43499;52.366;12.912;2024-01-11T03:46:38;102842.88;;;-5.93;78.83
57668;BME280;43499;52.366;12.912;2024-01-11T03:47:39;102840.84;;;-5.90;78.71
57668;BME280;43499;52.366;12.912;2024-01-11T03:48:41;102831.84;;;-5.88;79.12
57668;BME280;43499;52.366;12.912;2024-01-11T03:49:42;102833.22;;;-5.80;79.01
57668;BME280;43499;52.366;12.912;2024-01-11T03:50:43;102831.41;;;-5.95;78.74
57668;BME280;43499;52.366;12.912;2024-01-11T03:51:44;102814.00;;;-5.92;78.68
57668;BME280;43499;52.366;12.912;2024-01-11T03:52:45;102838.19;;;-5.85;78.75
57668;BME280;43499;52.366;12.912;2024-01-11T03:53:46;102833.88;;;-5.81;78.60
57668;BME280;43499;52.366;12.912;2024-01-11T03:54:47;102821.22;;;-5.75;78.24
57668;BME280;43499;52.366;12.912;2024-01-11T03:55:48;102818.00;;;-5.74;78.45
57668;BME280;43499;52.366;12.912;2024-01-11T03:56:49;102819.91;;;-5.73;78.15
57668;BME280;43499;52.366;12.912;2024-01-11T03:57:51;102802.75;;;-5.78;78.44
57668;BME280;43499;52.366;12.912;2024-01-11T03:58:52;102796.31;;;-5.66;78.62
57668;BME280;43499;52.366;12.912;2024-01-11T03:59:53;102800.59;;;-5.81;78.03
57668;BME280;43499;52.366;12.912;2024-01-11T04:00:54;102797.88;;;-5.86;78.56
57668;BME280;43499;52.366;12.912;2024-01-11T04:01:56;102799.66;;;-5.81;78.63
57668;BME280;43499;52.366;12.912;2024-01-11T04:02:58;102800.78;;;-5.65;78.19
57668;BME280;43499;52.366;12.912;2024-01-11T04:03:59;102788.78;;;-5.61;78.19
57668;BME280;43499;52.366;12.912;2024-01-11T04:05:00;102784.72;;;-5.54;77.56
57668;BME280;43499;52.366;12.912;2024-01-11T04:06:01;102786.34;;;-5.55;77.65
57668;BME280;43499;52.366;12.912;2024-01-11T04:07:02;102787.28;;;-5.64;77.55
57668;BME280;43499;52.366;12.912;2024-01-11T04:08:05;102787.81;;;-5.61;77.28
57668;BME280;43499;52.366;12.912;2024-01-11T04:09:06;102781.31;;;-5.69;77.15
57668;BME280;43499;52.366;12.912;2024-01-11T04:10:08;102763.09;;;-5.80;77.33
57668;BME280;43499;52.366;12.912;2024-01-11T04:11:10;102787.09;;;-5.80;77.61
57668;BME280;43499;52.366;12.912;2024-01-11T04:12:11;102777.53;;;-5.81;77.68
57668;BME280;43499;52.366;12.912;2024-01-11T04:13:12;102774.34;;;-5.60;77.76
57668;BME280;43499;52.366;12.912;2024-01-11T04:14:13;102772.72;;;-5.69;77.54
57668;BME280;43499;52.366;12.912;2024-01-11T04:15:14;102774.59;;;-5.68;77.64
57668;BME280;43499;52.366;12.912;2024-01-11T04:16:15;102768.50;;;-5.79;77.50
57668;BME280;43499;52.366;12.912;2024-01-11T04:17:16;102767.03;;;-5.82;78.09
57668;BME280;43499;52.366;12.912;2024-01-11T04:18:17;102782.47;;;-5.96;77.95
57668;BME280;43499;52.366;12.912;2024-01-11T04:19:18;102778.59;;;-5.84;78.27
57668;BME280;43499;52.366;12.912;2024-01-11T04:20:19;102779.56;;;-5.74;78.18
57668;BME280;43499;52.366;12.912;2024-01-11T04:21:24;102768.91;;;-5.71;78.02
57668;BME280;43499;52.366;12.912;2024-01-11T04:22:29;102786.88;;;-5.62;77.91
57668;BME280;43499;52.366;12.912;2024-01-11T04:23:30;102791.84;;;-5.58;77.78
57668;BME280;43499;52.366;12.912;2024-01-11T04:24:31;102790.25;;;-5.57;77.60
57668;BME280;43499;52.366;12.912;2024-01-11T04:25:32;102794.41;;;-5.58;77.49
57668;BME280;43499;52.366;12.912;2024-01-11T04:26:33;102818.81;;;-5.69;77.66
57668;BME280;43499;52.366;12.912;2024-01-11T04:27:34;102790.91;;;-5.68;77.32
57668;BME280;43499;52.366;12.912;2024-01-11T04:28:36;102802.41;;;-5.56;77.69
57668;BME280;43499;52.366;12.912;2024-01-11T04:29:37;102803.63;;;-5.44;77.15
57668;BME280;43499;52.366;12.912;2024-01-11T04:30:38;102809.19;;;-5.37;77.10
57668;BME280;43499;52.366;12.912;2024-01-11T04:31:40;102798.25;;;-5.36;76.96
57668;BME280;43499;52.366;12.912;2024-01-11T04:32:41;102795.53;;;-5.32;77.09
57668;BME280;43499;52.366;12.912;2024-01-11T04:33:42;102799.75;;;-5.32;76.90
57668;BME280;43499;52.366;12.912;2024-01-11T04:34:43;102792.84;;;-5.37;76.86
57668;BME280;43499;52.366;12.912;2024-01-11T04:35:44;102793.41;;;-5.34;76.91
57668;BME280;43499;52.366;12.912;2024-01-11T04:36:45;102785.03;;;-5.33;76.92
57668;BME280;43499;52.366;12.912;2024-01-11T04:37:46;102779.75;;;-5.59;76.97
57668;BME280;43499;52.366;12.912;2024-01-11T04:38:47;102794.31;;;-5.53;76.96
57668;BME280;43499;52.366;12.912;2024-01-11T04:39:48;102794.03;;;-5.45;77.28
57668;BME280;43499;52.366;12.912;2024-01-11T04:40:49;102790.41;;;-5.51;77.13
57668;BME280;43499;52.366;12.912;2024-01-11T04:41:50;102806.59;;;-5.47;77.05
57668;BME280;43499;52.366;12.912;2024-01-11T04:42:51;102804.59;;;-5.44;77.12
57668;BME280;43499;52.366;12.912;2024-01-11T04:43:52;102804.84;;;-5.42;77.28
57668;BME280;43499;52.366;12.912;2024-01-11T04:44:53;102787.84;;;-5.51;77.32
57668;BME280;43499;52.366;12.912;2024-01-11T04:45:55;102795.81;;;-5.40;77.13
57668;BME280;43499;52.366;12.912;2024-01-11T04:46:56;102802.31;;;-5.32;77.22
57668;BME280;43499;52.366;12.912;2024-01-11T04:47:57;102812.41;;;-5.28;77.08
57668;BME280;43499;52.366;12.912;2024-01-11T04:48:58;102813.78;;;-5.30;77.42
57668;BME280;43499;52.366;12.912;2024-01-11T04:49:59;102806.75;;;-5.31;77.52
57668;BME280;43499;52.366;12.912;2024-01-11T04:51:00;102802.53;;;-5.40;77.52
57668;BME280;43499;52.366;12.912;2024-01-11T04:52:01;102794.44;;;-5.48;77.71
57668;BME280;43499;52.366;12.912;2024-01-11T04:53:02;102813.63;;;-5.36;77.93
57668;BME280;43499;52.366;12.912;2024-01-11T04:54:03;102801.63;;;-5.31;77.76
57668;BME280;43499;52.366;12.912;2024-01-11T04:55:04;102791.50;;;-5.35;77.91
57668;BME280;43499;52.366;12.912;2024-01-11T04:56:09;102805.66;;;-5.37;78.05
57668;BME280;43499;52.366;12.912;2024-01-11T04:57:11;102803.22;;;-5.32;77.75
57668;BME280;43499;52.366;12.912;2024-01-11T04:58:12;102774.50;;;-5.45;77.90
57668;BME280;43499;52.366;12.912;2024-01-11T04:59:13;102791.63;;;-5.39;77.90
57668;BME280;43499;52.366;12.912;2024-01-11T05:00:14;102792.00;;;-5.52;78.77
57668;BME280;43499;52.366;12.912;2024-01-11T05:01:16;102787.44;;;-5.59;79.03
57668;BME280;43499;52.366;12.912;2024-01-11T05:02:20;102789.31;;;-5.58;79.42
57668;BME280;43499;52.366;12.912;2024-01-11T05:03:21;102775.16;;;-5.65;79.51
57668;BME280;43499;52.366;12.912;2024-01-11T05:04:22;102771.47;;;-5.71;79.61
57668;BME280;43499;52.366;12.912;2024-01-11T05:05:23;102785.53;;;-5.50;79.86
57668;BME280;43499;52.366;12.912;2024-01-11T05:06:24;102779.88;;;-5.43;79.59
57668;BME280;43499;52.366;12.912;2024-01-11T05:07:27;102784.75;;;-5.35;79.62
57668;BME280;43499;52.366;12.912;2024-01-11T05:08:28;102781.25;;;-5.35;79.44
57668;BME280;43499;52.366;12.912;2024-01-11T05:09:29;102785.97;;;-5.33;79.20
57668;BME280;43499;52.366;12.912;2024-01-11T05:10:30;102780.31;;;-5.26;79.34
57668;BME280;43499;52.366;12.912;2024-01-11T05:11:31;102774.66;;;-5.39;79.26
57668;BME280;43499;52.366;12.912;2024-01-11T05:12:32;102780.19;;;-5.22;79.32
57668;BME280;43499;52.366;12.912;2024-01-11T05:13:33;102783.56;;;-5.17;79.42
57668;BME280;43499;52.366;12.912;2024-01-11T05:14:35;102787.34;;;-5.15;79.49
57668;BME280;43499;52.366;12.912;2024-01-11T05:15:36;102786.81;;;-5.08;79.27
57668;BME280;43499;52.366;12.912;2024-01-11T05:16:37;102778.28;;;-5.03;79.35